sensor_id;sensor_type;location;lat;lon;timestamp;P1;durP1;ratioP1;P2;durP2;ratioP2
67696;SDS011;54486;51.442;6.778;2023-05-07T00:00:35;16.48;;;7.93;;
67696;SDS011;54486;51.442;6.778;2023-05-07T00:03:03;11.73;;;5.50;;
67696;SDS011;54486;51.442;6.778;2023-05-07T00:05:30;12.67;;;5.00;;
67696;SDS011;54486;51.442;6.778;2023-05-07T00:07:57;10.15;;;4.85;;
67696;SDS011;54486;51.442;6.778;2023-05-07T00:10:25;10.50;;;5.03;;
67696;SDS011;54486;51.442;6.778;2023-05-07T00:12:52;10.30;;;4.70;;
67696;SDS011;54486;51.442;6.778;2023-05-07T00:15:20;10.38;;;4.60;;
67696;SDS011;54486;51.442;6.778;2023-05-07T00:17:49;9.88;;;4.85;;
67696;SDS011;54486;51.442;6.778;2023-05-07T00:20:16;10.05;;;4.57;;
67696;SDS011;54486;51.442;6.778;2023-05-07T00:22:43;9.90;;;4.78;;
67696;SDS011;54486;51.442;6.778;2023-05-07T00:25:11;10.15;;;4.75;;
67696;SDS011;54486;51.442;6.778;2023-05-07T00:27:38;9.73;;;4.23;;
67696;SDS011;54486;51.442;6.778;2023-05-07T00:30:05;9.95;;;4.35;;
67696;SDS011;54486;51.442;6.778;2023-05-07T00:32:33;9.18;;;4.28;;
67696;SDS011;54486;51.442;6.778;2023-05-07T00:35:00;9.63;;;4.50;;
67696;SDS011;54486;51.442;6.778;2023-05-07T00:37:27;9.67;;;4.30;;
67696;SDS011;54486;51.442;6.778;2023-05-07T00:39:54;8.80;;;4.47;;
67696;SDS011;54486;51.442;6.778;2023-05-07T00:42:22;9.73;;;4.70;;
67696;SDS011;54486;51.442;6.778;2023-05-07T00:44:49;10.30;;;4.90;;
67696;SDS011;54486;51.442;6.778;2023-05-07T00:47:16;9.43;;;4.70;;
67696;SDS011;54486;51.442;6.778;2023-05-07T00:49:44;10.35;;;4.72;;
67696;SDS011;54486;51.442;6.778;2023-05-07T00:52:15;9.77;;;4.88;;
67696;SDS011;54486;51.442;6.778;2023-05-07T00:54:44;9.68;;;4.57;;
67696;SDS011;54486;51.442;6.778;2023-05-07T00:57:11;9.63;;;4.35;;
67696;SDS011;54486;51.442;6.778;2023-05-07T00:59:38;9.40;;;4.70;;
67696;SDS011;54486;51.442;6.778;2023-05-07T01:02:08;10.63;;;4.43;;
67696;SDS011;54486;51.442;6.778;2023-05-07T01:04:35;10.60;;;4.78;;
67696;SDS011;54486;51.442;6.778;2023-05-07T01:07:04;9.13;;;4.32;;
67696;SDS011;54486;51.442;6.778;2023-05-07T01:09:32;10.40;;;4.82;;
67696;SDS011;54486;51.442;6.778;2023-05-07T01:12:01;10.02;;;4.68;;
67696;SDS011;54486;51.442;6.778;2023-05-07T01:14:30;10.53;;;5.20;;
67696;SDS011;54486;51.442;6.778;2023-05-07T01:17:00;10.00;;;4.70;;
67696;SDS011;54486;51.442;6.778;2023-05-07T01:19:28;10.50;;;5.13;;
67696;SDS011;54486;51.442;6.778;2023-05-07T01:22:07;10.50;;;5.18;;
67696;SDS011;54486;51.442;6.778;2023-05-07T01:24:38;10.60;;;5.53;;
67696;SDS011;54486;51.442;6.778;2023-05-07T01:27:05;10.35;;;5.32;;
67696;SDS011;54486;51.442;6.778;2023-05-07T01:29:33;10.93;;;6.10;;
67696;SDS011;54486;51.442;6.778;2023-05-07T01:32:00;11.40;;;5.90;;
67696;SDS011;54486;51.442;6.778;2023-05-07T01:34:30;11.80;;;6.40;;
67696;SDS011;54486;51.442;6.778;2023-05-07T01:36:59;11.80;;;6.38;;
67696;SDS011;54486;51.442;6.778;2023-05-07T01:39:31;11.52;;;6.03;;
67696;SDS011;54486;51.442;6.778;2023-05-07T01:41:59;12.48;;;6.60;;
67696;SDS011;54486;51.442;6.778;2023-05-07T01:44:29;11.90;;;6.32;;
67696;SDS011;54486;51.442;6.778;2023-05-07T01:46:58;12.38;;;6.40;;
67696;SDS011;54486;51.442;6.778;2023-05-07T01:49:26;11.48;;;6.40;;
67696;SDS011;54486;51.442;6.778;2023-05-07T01:51:54;12.63;;;6.53;;
67696;SDS011;54486;51.442;6.778;2023-05-07T01:54:25;12.73;;;6.68;;
67696;SDS011;54486;51.442;6.778;2023-05-07T01:56:55;11.63;;;6.05;;
67696;SDS011;54486;51.442;6.778;2023-05-07T01:59:22;12.52;;;6.55;;
67696;SDS011;54486;51.442;6.778;2023-05-07T02:01:50;10.90;;;6.57;;
67696;SDS011;54486;51.442;6.778;2023-05-07T02:04:17;11.77;;;6.55;;
67696;SDS011;54486;51.442;6.778;2023-05-07T02:06:44;12.18;;;6.20;;
67696;SDS011;54486;51.442;6.778;2023-05-07T02:09:11;11.43;;;6.33;;
67696;SDS011;54486;51.442;6.778;2023-05-07T02:11:44;12.02;;;6.57;;
67696;SDS011;54486;51.442;6.778;2023-05-07T02:14:12;11.77;;;6.40;;
67696;SDS011;54486;51.442;6.778;2023-05-07T02:16:40;10.60;;;5.88;;
67696;SDS011;54486;51.442;6.778;2023-05-07T02:19:08;12.63;;;6.15;;
67696;SDS011;54486;51.442;6.778;2023-05-07T02:21:35;11.93;;;6.23;;
67696;SDS011;54486;51.442;6.778;2023-05-07T02:24:03;11.48;;;5.60;;
67696;SDS011;54486;51.442;6.778;2023-05-07T02:26:31;12.20;;;6.20;;
67696;SDS011;54486;51.442;6.778;2023-05-07T02:28:59;13.07;;;6.25;;
67696;SDS011;54486;51.442;6.778;2023-05-07T02:31:26;11.30;;;5.90;;
67696;SDS011;54486;51.442;6.778;2023-05-07T02:33:54;12.57;;;6.37;;
67696;SDS011;54486;51.442;6.778;2023-05-07T02:36:21;11.73;;;6.05;;
67696;SDS011;54486;51.442;6.778;2023-05-07T02:38:48;13.68;;;6.57;;
67696;SDS011;54486;51.442;6.778;2023-05-07T02:41:15;11.15;;;6.22;;
67696;SDS011;54486;51.442;6.778;2023-05-07T02:43:42;12.13;;;6.45;;
67696;SDS011;54486;51.442;6.778;2023-05-07T02:46:10;11.25;;;6.35;;
67696;SDS011;54486;51.442;6.778;2023-05-07T02:48:38;14.07;;;6.72;;
67696;SDS011;54486;51.442;6.778;2023-05-07T02:51:05;12.48;;;6.45;;
67696;SDS011;54486;51.442;6.778;2023-05-07T02:53:32;12.67;;;6.33;;
67696;SDS011;54486;51.442;6.778;2023-05-07T02:56:00;11.70;;;6.75;;
67696;SDS011;54486;51.442;6.778;2023-05-07T02:58:28;10.52;;;6.00;;
67696;SDS011;54486;51.442;6.778;2023-05-07T03:00:55;14.00;;;7.40;;
67696;SDS011;54486;51.442;6.778;2023-05-07T03:03:22;12.18;;;6.30;;
67696;SDS011;54486;51.442;6.778;2023-05-07T03:05:49;11.68;;;6.40;;
67696;SDS011;54486;51.442;6.778;2023-05-07T03:08:16;12.40;;;6.73;;
67696;SDS011;54486;51.442;6.778;2023-05-07T03:10:43;12.70;;;6.82;;
67696;SDS011;54486;51.442;6.778;2023-05-07T03:13:10;12.20;;;7.20;;
67696;SDS011;54486;51.442;6.778;2023-05-07T03:15:38;14.50;;;7.30;;
67696;SDS011;54486;51.442;6.778;2023-05-07T03:18:05;12.63;;;7.15;;
67696;SDS011;54486;51.442;6.778;2023-05-07T03:20:33;12.90;;;7.10;;
67696;SDS011;54486;51.442;6.778;2023-05-07T03:23:00;13.45;;;7.18;;
67696;SDS011;54486;51.442;6.778;2023-05-07T03:25:27;13.02;;;7.30;;
67696;SDS011;54486;51.442;6.778;2023-05-07T03:27:57;13.57;;;7.57;;
67696;SDS011;54486;51.442;6.778;2023-05-07T03:30:24;14.75;;;7.60;;
67696;SDS011;54486;51.442;6.778;2023-05-07T03:32:51;13.38;;;7.53;;
67696;SDS011;54486;51.442;6.778;2023-05-07T03:35:18;14.03;;;7.23;;
67696;SDS011;54486;51.442;6.778;2023-05-07T03:37:45;14.18;;;7.53;;
67696;SDS011;54486;51.442;6.778;2023-05-07T03:40:13;14.00;;;7.88;;
67696;SDS011;54486;51.442;6.778;2023-05-07T03:42:40;14.65;;;7.70;;
67696;SDS011;54486;51.442;6.778;2023-05-07T03:45:07;13.88;;;7.35;;
67696;SDS011;54486;51.442;6.778;2023-05-07T03:47:35;13.32;;;7.65;;
67696;SDS011;54486;51.442;6.778;2023-05-07T03:50:02;14.47;;;7.63;;
67696;SDS011;54486;51.442;6.778;2023-05-07T03:52:30;14.70;;;7.63;;
67696;SDS011;54486;51.442;6.778;2023-05-07T03:54:57;15.48;;;8.02;;
67696;SDS011;54486;51.442;6.778;2023-05-07T03:57:24;13.43;;;7.10;;
67696;SDS011;54486;51.442;6.778;2023-05-07T03:59:51;14.57;;;7.88;;
67696;SDS011;54486;51.442;6.778;2023-05-07T04:02:18;14.27;;;7.35;;
67696;SDS011;54486;51.442;6.778;2023-05-07T04:04:45;14.70;;;7.55;;
67696;SDS011;54486;51.442;6.778;2023-05-07T04:07:12;14.35;;;8.00;;
67696;SDS011;54486;51.442;6.778;2023-05-07T04:09:39;14.90;;;8.23;;
67696;SDS011;54486;51.442;6.778;2023-05-07T04:12:06;15.27;;;8.17;;
67696;SDS011;54486;51.442;6.778;2023-05-07T04:14:34;14.50;;;8.02;;
67696;SDS011;54486;51.442;6.778;2023-05-07T04:17:01;16.60;;;8.52;;
67696;SDS011;54486;51.442;6.778;2023-05-07T04:19:29;15.77;;;8.65;;
67696;SDS011;54486;51.442;6.778;2023-05-07T04:21:55;15.88;;;8.88;;
67696;SDS011;54486;51.442;6.778;2023-05-07T04:24:23;16.23;;;9.45;;
67696;SDS011;54486;51.442;6.778;2023-05-07T04:26:50;15.73;;;9.23;;
67696;SDS011;54486;51.442;6.778;2023-05-07T04:29:18;15.85;;;8.48;;
67696;SDS011;54486;51.442;6.778;2023-05-07T04:31:45;18.08;;;10.05;;
67696;SDS011;54486;51.442;6.778;2023-05-07T04:34:12;15.87;;;8.80;;
67696;SDS011;54486;51.442;6.778;2023-05-07T04:36:39;16.00;;;9.23;;
67696;SDS011;54486;51.442;6.778;2023-05-07T04:39:07;15.00;;;8.32;;
67696;SDS011;54486;51.442;6.778;2023-05-07T04:41:36;16.67;;;9.30;;
67696;SDS011;54486;51.442;6.778;2023-05-07T04:44:03;16.45;;;9.15;;
67696;SDS011;54486;51.442;6.778;2023-05-07T04:46:30;16.63;;;9.07;;
67696;SDS011;54486;51.442;6.778;2023-05-07T04:48:58;18.00;;;9.50;;
67696;SDS011;54486;51.442;6.778;2023-05-07T04:51:25;16.52;;;9.05;;
67696;SDS011;54486;51.442;6.778;2023-05-07T04:53:52;15.87;;;8.70;;
67696;SDS011;54486;51.442;6.778;2023-05-07T04:56:19;16.08;;;9.32;;
67696;SDS011;54486;51.442;6.778;2023-05-07T04:58:46;16.15;;;8.90;;
67696;SDS011;54486;51.442;6.778;2023-05-07T05:01:14;15.73;;;8.63;;
67696;SDS011;54486;51.442;6.778;2023-05-07T05:03:41;16.67;;;9.30;;
67696;SDS011;54486;51.442;6.778;2023-05-07T05:06:08;16.40;;;9.27;;
67696;SDS011;54486;51.442;6.778;2023-05-07T05:08:36;16.83;;;9.38;;
67696;SDS011;54486;51.442;6.778;2023-05-07T05:11:02;16.45;;;9.23;;
67696;SDS011;54486;51.442;6.778;2023-05-07T05:13:30;17.58;;;8.80;;
67696;SDS011;54486;51.442;6.778;2023-05-07T05:15:57;16.52;;;9.25;;
67696;SDS011;54486;51.442;6.778;2023-05-07T05:18:24;16.73;;;8.82;;
67696;SDS011;54486;51.442;6.778;2023-05-07T05:20:52;16.67;;;9.30;;
67696;SDS011;54486;51.442;6.778;2023-05-07T05:23:19;16.23;;;9.63;;
67696;SDS011;54486;51.442;6.778;2023-05-07T05:25:47;16.75;;;8.77;;
67696;SDS011;54486;51.442;6.778;2023-05-07T05:28:14;18.50;;;9.50;;
67696;SDS011;54486;51.442;6.778;2023-05-07T05:30:42;15.73;;;9.15;;
67696;SDS011;54486;51.442;6.778;2023-05-07T05:33:09;16.42;;;10.05;;
67696;SDS011;54486;51.442;6.778;2023-05-07T05:35:36;17.25;;;9.88;;
67696;SDS011;54486;51.442;6.778;2023-05-07T05:38:04;17.27;;;9.60;;
67696;SDS011;54486;51.442;6.778;2023-05-07T05:40:31;18.55;;;10.52;;
67696;SDS011;54486;51.442;6.778;2023-05-07T05:42:59;17.47;;;9.27;;
67696;SDS011;54486;51.442;6.778;2023-05-07T05:45:27;18.55;;;9.90;;
67696;SDS011;54486;51.442;6.778;2023-05-07T05:47:55;18.00;;;9.80;;
67696;SDS011;54486;51.442;6.778;2023-05-07T05:50:22;18.00;;;9.93;;
67696;SDS011;54486;51.442;6.778;2023-05-07T05:52:50;17.23;;;9.70;;
67696;SDS011;54486;51.442;6.778;2023-05-07T05:55:17;17.00;;;9.52;;
67696;SDS011;54486;51.442;6.778;2023-05-07T05:57:44;16.55;;;9.82;;
67696;SDS011;54486;51.442;6.778;2023-05-07T06:00:11;18.17;;;9.73;;
67696;SDS011;54486;51.442;6.778;2023-05-07T06:02:40;15.77;;;9.15;;
67696;SDS011;54486;51.442;6.778;2023-05-07T06:05:10;17.65;;;9.55;;
67696;SDS011;54486;51.442;6.778;2023-05-07T06:07:37;16.42;;;9.27;;
67696;SDS011;54486;51.442;6.778;2023-05-07T06:10:04;16.42;;;8.45;;
67696;SDS011;54486;51.442;6.778;2023-05-07T06:12:32;15.23;;;8.45;;
67696;SDS011;54486;51.442;6.778;2023-05-07T06:14:59;14.30;;;8.02;;
67696;SDS011;54486;51.442;6.778;2023-05-07T06:17:26;14.03;;;7.37;;
67696;SDS011;54486;51.442;6.778;2023-05-07T06:19:54;14.27;;;7.47;;
67696;SDS011;54486;51.442;6.778;2023-05-07T06:22:21;13.68;;;6.88;;
67696;SDS011;54486;51.442;6.778;2023-05-07T06:24:49;12.68;;;6.95;;
67696;SDS011;54486;51.442;6.778;2023-05-07T06:27:16;11.88;;;6.53;;
67696;SDS011;54486;51.442;6.778;2023-05-07T06:29:43;12.52;;;6.45;;
67696;SDS011;54486;51.442;6.778;2023-05-07T06:32:10;11.70;;;6.18;;
67696;SDS011;54486;51.442;6.778;2023-05-07T06:34:39;10.95;;;5.68;;
67696;SDS011;54486;51.442;6.778;2023-05-07T06:37:07;11.73;;;5.72;;
67696;SDS011;54486;51.442;6.778;2023-05-07T06:39:36;10.90;;;5.20;;
67696;SDS011;54486;51.442;6.778;2023-05-07T06:42:04;10.30;;;5.00;;
67696;SDS011;54486;51.442;6.778;2023-05-07T06:44:33;11.25;;;5.50;;
67696;SDS011;54486;51.442;6.778;2023-05-07T06:47:01;10.65;;;4.90;;
67696;SDS011;54486;51.442;6.778;2023-05-07T06:49:28;9.23;;;4.15;;
67696;SDS011;54486;51.442;6.778;2023-05-07T06:51:55;10.43;;;4.72;;
67696;SDS011;54486;51.442;6.778;2023-05-07T06:54:23;11.07;;;4.88;;
67696;SDS011;54486;51.442;6.778;2023-05-07T06:56:52;9.65;;;4.68;;
67696;SDS011;54486;51.442;6.778;2023-05-07T06:59:19;10.15;;;4.53;;
67696;SDS011;54486;51.442;6.778;2023-05-07T07:01:46;9.57;;;4.53;;
67696;SDS011;54486;51.442;6.778;2023-05-07T07:04:14;9.68;;;4.45;;
67696;SDS011;54486;51.442;6.778;2023-05-07T07:06:41;9.10;;;4.00;;
67696;SDS011;54486;51.442;6.778;2023-05-07T07:09:09;9.25;;;4.30;;
67696;SDS011;54486;51.442;6.778;2023-05-07T07:11:36;9.23;;;4.25;;
67696;SDS011;54486;51.442;6.778;2023-05-07T07:14:03;8.88;;;4.10;;
67696;SDS011;54486;51.442;6.778;2023-05-07T07:16:31;9.32;;;3.92;;
67696;SDS011;54486;51.442;6.778;2023-05-07T07:18:59;8.30;;;3.63;;
67696;SDS011;54486;51.442;6.778;2023-05-07T07:21:26;8.30;;;3.85;;
67696;SDS011;54486;51.442;6.778;2023-05-07T07:23:53;8.40;;;3.60;;
67696;SDS011;54486;51.442;6.778;2023-05-07T07:26:20;9.23;;;3.90;;
67696;SDS011;54486;51.442;6.778;2023-05-07T07:28:48;7.53;;;3.38;;
67696;SDS011;54486;51.442;6.778;2023-05-07T07:31:15;8.50;;;3.70;;
67696;SDS011;54486;51.442;6.778;2023-05-07T07:33:42;7.85;;;3.45;;
67696;SDS011;54486;51.442;6.778;2023-05-07T07:36:09;8.52;;;3.70;;
67696;SDS011;54486;51.442;6.778;2023-05-07T07:38:36;8.25;;;3.90;;
67696;SDS011;54486;51.442;6.778;2023-05-07T07:41:03;8.82;;;4.38;;
67696;SDS011;54486;51.442;6.778;2023-05-07T07:43:30;8.95;;;3.75;;
67696;SDS011;54486;51.442;6.778;2023-05-07T07:45:57;9.18;;;3.60;;
67696;SDS011;54486;51.442;6.778;2023-05-07T07:48:25;7.70;;;3.28;;
67696;SDS011;54486;51.442;6.778;2023-05-07T07:50:52;7.93;;;3.20;;
67696;SDS011;54486;51.442;6.778;2023-05-07T07:53:19;8.40;;;3.13;;
67696;SDS011;54486;51.442;6.778;2023-05-07T07:55:46;8.23;;;3.37;;
67696;SDS011;54486;51.442;6.778;2023-05-07T07:58:15;8.53;;;3.60;;
67696;SDS011;54486;51.442;6.778;2023-05-07T08:00:42;8.27;;;3.10;;
67696;SDS011;54486;51.442;6.778;2023-05-07T08:03:11;8.43;;;3.20;;
67696;SDS011;54486;51.442;6.778;2023-05-07T08:05:38;8.30;;;3.20;;
67696;SDS011;54486;51.442;6.778;2023-05-07T08:08:05;8.40;;;3.40;;
67696;SDS011;54486;51.442;6.778;2023-05-07T08:10:32;8.85;;;3.28;;
67696;SDS011;54486;51.442;6.778;2023-05-07T08:13:05;7.97;;;2.88;;
67696;SDS011;54486;51.442;6.778;2023-05-07T08:15:34;8.20;;;2.80;;
67696;SDS011;54486;51.442;6.778;2023-05-07T08:18:02;7.78;;;2.97;;
67696;SDS011;54486;51.442;6.778;2023-05-07T08:20:29;8.05;;;2.90;;
67696;SDS011;54486;51.442;6.778;2023-05-07T08:22:56;7.50;;;2.92;;
67696;SDS011;54486;51.442;6.778;2023-05-07T08:25:24;7.68;;;2.83;;
67696;SDS011;54486;51.442;6.778;2023-05-07T08:27:51;8.35;;;2.58;;
67696;SDS011;54486;51.442;6.778;2023-05-07T08:30:18;7.38;;;2.70;;
67696;SDS011;54486;51.442;6.778;2023-05-07T08:32:45;8.10;;;2.53;;
67696;SDS011;54486;51.442;6.778;2023-05-07T08:35:16;7.15;;;2.38;;
67696;SDS011;54486;51.442;6.778;2023-05-07T08:37:44;7.05;;;2.40;;
67696;SDS011;54486;51.442;6.778;2023-05-07T08:40:11;7.70;;;2.55;;
67696;SDS011;54486;51.442;6.778;2023-05-07T08:42:40;7.47;;;2.25;;
67696;SDS011;54486;51.442;6.778;2023-05-07T08:45:09;6.90;;;2.30;;
67696;SDS011;54486;51.442;6.778;2023-05-07T08:47:43;6.63;;;2.10;;
67696;SDS011;54486;51.442;6.778;2023-05-07T08:50:13;8.07;;;2.45;;
67696;SDS011;54486;51.442;6.778;2023-05-07T08:52:40;7.10;;;2.10;;
67696;SDS011;54486;51.442;6.778;2023-05-07T08:55:08;6.47;;;2.35;;
67696;SDS011;54486;51.442;6.778;2023-05-07T08:57:36;6.80;;;2.40;;
67696;SDS011;54486;51.442;6.778;2023-05-07T09:00:06;6.82;;;2.40;;
67696;SDS011;54486;51.442;6.778;2023-05-07T09:02:35;6.80;;;2.35;;
67696;SDS011;54486;51.442;6.778;2023-05-07T09:05:03;6.88;;;2.25;;
67696;SDS011;54486;51.442;6.778;2023-05-07T09:07:30;6.50;;;2.05;;
67696;SDS011;54486;51.442;6.778;2023-05-07T09:10:00;6.80;;;2.25;;
67696;SDS011;54486;51.442;6.778;2023-05-07T09:12:32;7.28;;;2.20;;
67696;SDS011;54486;51.442;6.778;2023-05-07T09:14:59;6.40;;;2.20;;
67696;SDS011;54486;51.442;6.778;2023-05-07T09:17:26;6.25;;;2.13;;
67696;SDS011;54486;51.442;6.778;2023-05-07T09:19:54;6.05;;;1.90;;
67696;SDS011;54486;51.442;6.778;2023-05-07T09:22:21;5.68;;;1.85;;
67696;SDS011;54486;51.442;6.778;2023-05-07T09:24:49;6.63;;;2.03;;
67696;SDS011;54486;51.442;6.778;2023-05-07T09:27:17;6.27;;;1.60;;
67696;SDS011;54486;51.442;6.778;2023-05-07T09:29:44;5.78;;;1.73;;
67696;SDS011;54486;51.442;6.778;2023-05-07T09:32:11;5.57;;;1.50;;
67696;SDS011;54486;51.442;6.778;2023-05-07T09:34:38;5.88;;;1.83;;
67696;SDS011;54486;51.442;6.778;2023-05-07T09:37:06;6.25;;;1.88;;
67696;SDS011;54486;51.442;6.778;2023-05-07T09:39:40;5.88;;;1.85;;
67696;SDS011;54486;51.442;6.778;2023-05-07T09:42:10;6.00;;;1.80;;
67696;SDS011;54486;51.442;6.778;2023-05-07T09:44:38;5.53;;;1.83;;
67696;SDS011;54486;51.442;6.778;2023-05-07T09:47:06;6.60;;;1.73;;
67696;SDS011;54486;51.442;6.778;2023-05-07T09:49:35;8.13;;;2.10;;
67696;SDS011;54486;51.442;6.778;2023-05-07T09:52:04;5.38;;;1.65;;
67696;SDS011;54486;51.442;6.778;2023-05-07T09:54:35;6.22;;;1.73;;
67696;SDS011;54486;51.442;6.778;2023-05-07T09:57:05;5.77;;;1.60;;
67696;SDS011;54486;51.442;6.778;2023-05-07T09:59:33;5.05;;;1.52;;
67696;SDS011;54486;51.442;6.778;2023-05-07T10:02:02;5.40;;;1.60;;
67696;SDS011;54486;51.442;6.778;2023-05-07T10:04:31;5.28;;;1.35;;
67696;SDS011;54486;51.442;6.778;2023-05-07T10:06:58;5.70;;;1.70;;
67696;SDS011;54486;51.442;6.778;2023-05-07T10:09:26;5.60;;;1.60;;
67696;SDS011;54486;51.442;6.778;2023-05-07T10:11:53;5.60;;;1.55;;
67696;SDS011;54486;51.442;6.778;2023-05-07T10:14:21;5.80;;;1.60;;
67696;SDS011;54486;51.442;6.778;2023-05-07T10:16:48;5.45;;;1.52;;
67696;SDS011;54486;51.442;6.778;2023-05-07T10:19:16;5.25;;;1.40;;
67696;SDS011;54486;51.442;6.778;2023-05-07T10:21:48;6.53;;;1.83;;
67696;SDS011;54486;51.442;6.778;2023-05-07T10:24:31;6.18;;;1.70;;
67696;SDS011;54486;51.442;6.778;2023-05-07T10:27:01;5.90;;;1.50;;
67696;SDS011;54486;51.442;6.778;2023-05-07T10:29:33;5.50;;;1.60;;
67696;SDS011;54486;51.442;6.778;2023-05-07T10:35:01;5.47;;;1.70;;
67696;SDS011;54486;51.442;6.778;2023-05-07T10:37:31;5.60;;;1.70;;
67696;SDS011;54486;51.442;6.778;2023-05-07T10:39:59;6.40;;;1.70;;
67696;SDS011;54486;51.442;6.778;2023-05-07T10:42:27;5.50;;;1.50;;
67696;SDS011;54486;51.442;6.778;2023-05-07T10:44:54;5.55;;;1.50;;
67696;SDS011;54486;51.442;6.778;2023-05-07T10:47:21;6.88;;;1.77;;
67696;SDS011;54486;51.442;6.778;2023-05-07T10:52:17;5.35;;;1.67;;
67696;SDS011;54486;51.442;6.778;2023-05-07T10:54:45;6.25;;;2.05;;
67696;SDS011;54486;51.442;6.778;2023-05-07T10:57:32;6.13;;;1.75;;
67696;SDS011;54486;51.442;6.778;2023-05-07T11:03:04;6.10;;;1.80;;
67696;SDS011;54486;51.442;6.778;2023-05-07T11:05:33;6.20;;;2.20;;
67696;SDS011;54486;51.442;6.778;2023-05-07T11:08:04;6.15;;;1.70;;
67696;SDS011;54486;51.442;6.778;2023-05-07T11:13:40;6.25;;;2.00;;
67696;SDS011;54486;51.442;6.778;2023-05-07T11:16:27;6.35;;;2.00;;
67696;SDS011;54486;51.442;6.778;2023-05-07T11:18:57;7.03;;;2.05;;
67696;SDS011;54486;51.442;6.778;2023-05-07T11:21:57;6.28;;;1.80;;
67696;SDS011;54486;51.442;6.778;2023-05-07T11:24:17;6.00;;;2.00;;
67696;SDS011;54486;51.442;6.778;2023-05-07T11:26:49;5.95;;;1.80;;
67696;SDS011;54486;51.442;6.778;2023-05-07T11:29:18;5.63;;;1.63;;
67696;SDS011;54486;51.442;6.778;2023-05-07T11:31:49;6.00;;;1.90;;
67696;SDS011;54486;51.442;6.778;2023-05-07T11:34:21;5.53;;;1.55;;
67696;SDS011;54486;51.442;6.778;2023-05-07T11:36:49;6.93;;;2.00;;
67696;SDS011;54486;51.442;6.778;2023-05-07T11:39:26;6.13;;;1.80;;
67696;SDS011;54486;51.442;6.778;2023-05-07T11:41:54;5.80;;;1.60;;
67696;SDS011;54486;51.442;6.778;2023-05-07T11:44:22;6.03;;;2.08;;
67696;SDS011;54486;51.442;6.778;2023-05-07T11:46:49;7.07;;;2.08;;
67696;SDS011;54486;51.442;6.778;2023-05-07T11:49:17;7.07;;;1.98;;
67696;SDS011;54486;51.442;6.778;2023-05-07T11:51:45;7.00;;;1.80;;
67696;SDS011;54486;51.442;6.778;2023-05-07T11:54:15;6.30;;;2.00;;
67696;SDS011;54486;51.442;6.778;2023-05-07T11:56:43;6.32;;;1.80;;
67696;SDS011;54486;51.442;6.778;2023-05-07T11:59:12;6.70;;;2.00;;
67696;SDS011;54486;51.442;6.778;2023-05-07T12:01:46;6.00;;;1.90;;
67696;SDS011;54486;51.442;6.778;2023-05-07T12:04:13;6.63;;;1.98;;
67696;SDS011;54486;51.442;6.778;2023-05-07T12:06:46;5.78;;;1.80;;
67696;SDS011;54486;51.442;6.778;2023-05-07T12:09:13;6.00;;;1.80;;
67696;SDS011;54486;51.442;6.778;2023-05-07T12:11:40;6.72;;;1.85;;
67696;SDS011;54486;51.442;6.778;2023-05-07T12:14:13;6.15;;;2.00;;
67696;SDS011;54486;51.442;6.778;2023-05-07T12:16:42;6.78;;;2.10;;
67696;SDS011;54486;51.442;6.778;2023-05-07T12:19:10;6.25;;;1.90;;
67696;SDS011;54486;51.442;6.778;2023-05-07T12:21:41;6.10;;;1.90;;
67696;SDS011;54486;51.442;6.778;2023-05-07T12:24:09;6.63;;;1.95;;
67696;SDS011;54486;51.442;6.778;2023-05-07T12:26:38;5.83;;;1.97;;
67696;SDS011;54486;51.442;6.778;2023-05-07T12:29:08;6.10;;;1.98;;
67696;SDS011;54486;51.442;6.778;2023-05-07T12:31:35;6.17;;;2.00;;
67696;SDS011;54486;51.442;6.778;2023-05-07T12:34:02;6.40;;;2.10;;
67696;SDS011;54486;51.442;6.778;2023-05-07T12:36:36;6.88;;;2.45;;
67696;SDS011;54486;51.442;6.778;2023-05-07T12:39:05;6.10;;;2.10;;
67696;SDS011;54486;51.442;6.778;2023-05-07T12:41:56;6.82;;;2.50;;
67696;SDS011;54486;51.442;6.778;2023-05-07T12:44:26;5.40;;;1.70;;
67696;SDS011;54486;51.442;6.778;2023-05-07T12:46:57;6.10;;;1.70;;
67696;SDS011;54486;51.442;6.778;2023-05-07T12:49:25;6.07;;;1.90;;
67696;SDS011;54486;51.442;6.778;2023-05-07T12:51:56;6.85;;;1.85;;
67696;SDS011;54486;51.442;6.778;2023-05-07T12:57:02;6.65;;;1.90;;
67696;SDS011;54486;51.442;6.778;2023-05-07T12:59:31;6.13;;;2.13;;
67696;SDS011;54486;51.442;6.778;2023-05-07T13:02:04;5.90;;;2.00;;
67696;SDS011;54486;51.442;6.778;2023-05-07T13:04:32;7.10;;;2.20;;
67696;SDS011;54486;51.442;6.778;2023-05-07T13:07:00;6.30;;;2.13;;
67696;SDS011;54486;51.442;6.778;2023-05-07T13:09:29;8.30;;;2.30;;
67696;SDS011;54486;51.442;6.778;2023-05-07T13:11:56;6.07;;;1.95;;
67696;SDS011;54486;51.442;6.778;2023-05-07T13:14:23;6.57;;;2.38;;
67696;SDS011;54486;51.442;6.778;2023-05-07T13:16:50;6.38;;;1.80;;
67696;SDS011;54486;51.442;6.778;2023-05-07T13:19:17;6.18;;;2.17;;
67696;SDS011;54486;51.442;6.778;2023-05-07T13:21:45;7.47;;;2.10;;
67696;SDS011;54486;51.442;6.778;2023-05-07T13:24:12;6.03;;;2.10;;
67696;SDS011;54486;51.442;6.778;2023-05-07T13:26:39;7.07;;;2.30;;
67696;SDS011;54486;51.442;6.778;2023-05-07T13:29:06;6.38;;;2.10;;
67696;SDS011;54486;51.442;6.778;2023-05-07T13:31:34;6.50;;;2.30;;
67696;SDS011;54486;51.442;6.778;2023-05-07T13:34:02;7.38;;;2.50;;
67696;SDS011;54486;51.442;6.778;2023-05-07T13:36:29;6.70;;;2.50;;
67696;SDS011;54486;51.442;6.778;2023-05-07T13:39:00;7.45;;;2.50;;
67696;SDS011;54486;51.442;6.778;2023-05-07T13:41:28;7.65;;;2.63;;
67696;SDS011;54486;51.442;6.778;2023-05-07T13:43:56;7.80;;;2.80;;
67696;SDS011;54486;51.442;6.778;2023-05-07T13:46:23;7.85;;;2.78;;
67696;SDS011;54486;51.442;6.778;2023-05-07T13:48:51;6.67;;;2.30;;
67696;SDS011;54486;51.442;6.778;2023-05-07T13:51:17;7.38;;;2.58;;
67696;SDS011;54486;51.442;6.778;2023-05-07T13:53:45;8.75;;;3.00;;
67696;SDS011;54486;51.442;6.778;2023-05-07T13:56:12;7.07;;;2.90;;
67696;SDS011;54486;51.442;6.778;2023-05-07T13:58:39;7.60;;;2.97;;
67696;SDS011;54486;51.442;6.778;2023-05-07T14:01:22;7.30;;;2.70;;
67696;SDS011;54486;51.442;6.778;2023-05-07T14:03:48;7.65;;;2.63;;
67696;SDS011;54486;51.442;6.778;2023-05-07T14:06:17;7.43;;;2.63;;
67696;SDS011;54486;51.442;6.778;2023-05-07T14:08:44;7.63;;;2.63;;
67696;SDS011;54486;51.442;6.778;2023-05-07T14:11:12;6.93;;;2.97;;
67696;SDS011;54486;51.442;6.778;2023-05-07T14:13:39;7.45;;;2.97;;
67696;SDS011;54486;51.442;6.778;2023-05-07T14:16:06;8.40;;;3.08;;
67696;SDS011;54486;51.442;6.778;2023-05-07T14:18:33;9.38;;;3.33;;
67696;SDS011;54486;51.442;6.778;2023-05-07T14:21:03;8.10;;;3.55;;
67696;SDS011;54486;51.442;6.778;2023-05-07T14:23:32;9.73;;;3.65;;
67696;SDS011;54486;51.442;6.778;2023-05-07T14:25:59;8.70;;;3.50;;
67696;SDS011;54486;51.442;6.778;2023-05-07T14:28:26;8.32;;;3.33;;
67696;SDS011;54486;51.442;6.778;2023-05-07T14:30:54;7.97;;;3.20;;
67696;SDS011;54486;51.442;6.778;2023-05-07T14:33:21;8.05;;;3.50;;
67696;SDS011;54486;51.442;6.778;2023-05-07T14:35:49;7.72;;;3.13;;
67696;SDS011;54486;51.442;6.778;2023-05-07T14:38:17;8.07;;;3.33;;
67696;SDS011;54486;51.442;6.778;2023-05-07T14:40:44;8.40;;;3.43;;
67696;SDS011;54486;51.442;6.778;2023-05-07T14:43:11;8.48;;;3.20;;
67696;SDS011;54486;51.442;6.778;2023-05-07T14:45:38;8.40;;;3.63;;
67696;SDS011;54486;51.442;6.778;2023-05-07T14:48:06;8.38;;;3.20;;
67696;SDS011;54486;51.442;6.778;2023-05-07T14:50:32;7.70;;;3.15;;
67696;SDS011;54486;51.442;6.778;2023-05-07T14:52:59;8.18;;;3.72;;
67696;SDS011;54486;51.442;6.778;2023-05-07T14:55:27;8.20;;;3.43;;
67696;SDS011;54486;51.442;6.778;2023-05-07T14:57:55;9.68;;;3.95;;
67696;SDS011;54486;51.442;6.778;2023-05-07T15:00:22;9.95;;;4.10;;
67696;SDS011;54486;51.442;6.778;2023-05-07T15:02:49;8.10;;;3.65;;